Time;durP1;ratioP1;P1;durP2;ratioP2;P2;SDS_P1;SDS_P2;PMS_P1;PMS_P2;Temp;Humidity;BMP_temperature;BMP_pressure;BME280_temperature;BME280_humidity;BME280_pressure;Samples;Min_cycle;Max_cycle;Signal;HPM_P1;HPM_P2
2023/05/17 00:00:26;;;;;;;0.73;0.40;;;7.80;99.90;;;;;;5073617;28;20499;-79
2023/05/17 00:02:53;;;;;;;1.20;0.53;;;7.80;99.90;;;;;;5073029;28;20485;-79
2023/05/17 00:05:19;;;;;;;0.43;0.43;;;7.80;99.90;;;;;;5073522;28;20495;-79
2023/05/17 00:07:47;;;;;;;0.37;0.37;;;7.70;99.90;;;;;;5073190;28;20968;-79
2023/05/17 00:10:15;;;;;;;0.40;0.40;;;7.60;99.90;;;;;;5073150;28;20968;-79
2023/05/17 00:12:42;;;;;;;0.50;0.50;;;7.60;99.90;;;;;;5073523;28;20837;-79
2023/05/17 00:15:09;;;;;;;0.40;0.30;;;7.50;99.90;;;;;;5074003;28;20461;-79
2023/05/17 00:17:37;;;;;;;0.87;0.30;;;7.50;99.90;;;;;;5073428;28;20476;-79
2023/05/17 00:20:04;;;;;;;2.60;0.60;;;7.50;99.90;;;;;;5073521;28;20484;-79
2023/05/17 00:22:31;;;;;;;0.50;0.40;;;7.50;99.90;;;;;;5073309;28;20438;-79
2023/05/17 00:24:57;;;;;;;0.60;0.40;;;7.50;99.90;;;;;;5073440;28;20449;-79
2023/05/17 00:27:25;;;;;;;0.40;0.40;;;7.50;99.90;;;;;;5073320;28;20494;-79
2023/05/17 00:29:52;;;;;;;0.80;0.60;;;7.50;99.90;;;;;;5073342;28;20429;-79
2023/05/17 00:32:19;;;;;;;0.40;0.40;;;7.40;99.90;;;;;;5072879;28;20481;-79
2023/05/17 00:34:45;;;;;;;0.50;0.50;;;7.40;99.90;;;;;;5073190;28;20472;-79
2023/05/17 00:37:12;;;;;;;0.40;0.40;;;7.40;99.90;;;;;;5073173;28;20450;-79
2023/05/17 00:39:39;;;;;;;0.30;0.30;;;7.40;99.90;;;;;;5073218;28;20445;-79
2023/05/17 00:42:06;;;;;;;0.90;0.43;;;7.40;99.90;;;;;;5073223;28;20495;-79
2023/05/17 00:44:34;;;;;;;3.43;0.70;;;7.50;99.90;;;;;;5072927;28;21005;-79
2023/05/17 00:47:01;;;;;;;5.60;0.93;;;7.40;99.90;;;;;;5073364;28;20450;-79
2023/05/17 00:49:29;;;;;;;0.50;0.40;;;7.50;99.90;;;;;;5073636;28;20990;-79
2023/05/17 00:51:56;;;;;;;1.13;0.80;;;7.50;99.90;;;;;;5072893;28;20836;-79
2023/05/17 00:54:23;;;;;;;0.53;0.50;;;7.50;99.90;;;;;;5075583;28;20476;-79
2023/05/17 00:56:49;;;;;;;0.57;0.50;;;7.50;99.90;;;;;;5077012;28;20450;-79
2023/05/17 00:59:17;;;;;;;0.80;0.50;;;7.40;99.90;;;;;;5077032;28;20837;-79
2023/05/17 01:01:45;;;;;;;0.40;0.30;;;7.40;99.90;;;;;;5076936;28;20471;-79
2023/05/17 01:04:12;;;;;;;0.40;0.30;;;7.40;99.90;;;;;;5076613;28;20477;-79
2023/05/17 01:06:39;;;;;;;0.40;0.40;;;7.40;99.90;;;;;;5076530;28;20452;-79
2023/05/17 01:09:06;;;;;;;0.50;0.40;;;7.40;99.90;;;;;;5076776;28;20453;-79
2023/05/17 01:11:56;;;;;;;0.30;0.30;;;7.40;99.90;;;;;;5076636;28;20501;-79
2023/05/17 01:14:34;;;;;;;3.10;0.90;;;7.40;99.90;;;;;;5076627;28;20472;-79
2023/05/17 01:17:06;;;;;;;0.30;0.30;;;7.50;99.90;;;;;;5076872;28;20524;-79
2023/05/17 01:19:49;;;;;;;0.80;0.30;;;7.40;99.90;;;;;;5076298;28;20929;-79
2023/05/17 01:22:26;;;;;;;1.60;0.40;;;7.40;99.90;;;;;;5076551;28;20426;-79
2023/05/17 01:25:04;;;;;;;0.43;0.40;;;7.40;99.90;;;;;;5076456;28;20468;-79
2023/05/17 01:27:34;;;;;;;0.40;0.40;;;7.40;99.90;;;;;;5076465;28;20429;-79
2023/05/17 01:30:02;;;;;;;0.50;0.50;;;7.40;99.90;;;;;;5076393;28;20441;-79
2023/05/17 01:32:31;;;;;;;0.93;0.57;;;7.40;99.90;;;;;;5076235;28;20480;-79
2023/05/17 01:34:58;;;;;;;2.00;0.50;;;7.40;99.90;;;;;;5076212;28;20959;-79
2023/05/17 01:37:25;;;;;;;0.50;0.50;;;7.50;99.90;;;;;;5076512;28;20441;-79
2023/05/17 01:39:52;;;;;;;0.50;0.50;;;7.40;99.90;;;;;;5076209;28;20511;-79
2023/05/17 01:42:24;;;;;;;0.30;0.30;;;7.40;99.90;;;;;;5076177;28;20450;-79
2023/05/17 01:45:03;;;;;;;0.50;0.50;;;7.40;99.90;;;;;;5075753;28;20473;-79
2023/05/17 01:47:34;;;;;;;2.20;1.23;;;7.40;99.90;;;;;;5076113;28;20437;-79
2023/05/17 01:50:05;;;;;;;1.20;0.50;;;7.40;99.90;;;;;;5076103;28;20433;-79
2023/05/17 01:52:38;;;;;;;0.40;0.37;;;7.30;99.90;;;;;;5075547;28;20812;-79
2023/05/17 01:55:10;;;;;;;0.30;0.30;;;7.30;99.90;;;;;;5075707;28;20434;-79
2023/05/17 01:57:37;;;;;;;0.50;0.50;;;7.30;99.90;;;;;;5075628;28;20778;-79
2023/05/17 02:00:08;;;;;;;0.50;0.50;;;7.30;99.90;;;;;;5075530;28;20962;-79
2023/05/17 02:02:36;;;;;;;0.97;0.63;;;7.20;99.90;;;;;;5074533;28;20908;-79
2023/05/17 02:05:02;;;;;;;0.40;0.40;;;7.20;99.90;;;;;;5074514;28;20463;-79
2023/05/17 02:07:29;;;;;;;1.33;0.50;;;7.10;99.90;;;;;;5075745;28;20522;-79
2023/05/17 02:09:56;;;;;;;11.10;0.40;;;7.10;99.90;;;;;;5075379;28;20925;-79
2023/05/17 02:12:24;;;;;;;1.23;0.60;;;7.00;99.90;;;;;;5075983;28;20481;-79
2023/05/17 02:14:50;;;;;;;0.50;0.30;;;7.00;99.90;;;;;;5075503;28;20465;-79
2023/05/17 02:17:18;;;;;;;2.20;0.63;;;7.00;99.90;;;;;;5075560;28;20445;-79
2023/05/17 02:19:45;;;;;;;0.70;0.70;;;7.00;99.90;;;;;;5075196;28;20932;-79
2023/05/17 02:22:12;;;;;;;9.30;0.50;;;7.00;99.90;;;;;;5075148;28;20841;-79
2023/05/17 02:24:38;;;;;;;0.30;0.30;;;7.00;99.90;;;;;;5075380;28;20865;-79
2023/05/17 02:27:05;;;;;;;0.40;0.40;;;7.00;99.90;;;;;;5075045;28;20968;-79
2023/05/17 02:29:32;;;;;;;2.77;0.33;;;7.00;99.90;;;;;;5075264;28;20468;-79
2023/05/17 02:31:59;;;;;;;0.43;0.43;;;7.00;99.90;;;;;;5075164;28;20445;-79
2023/05/17 02:34:27;;;;;;;0.60;0.40;;;7.00;99.90;;;;;;5075043;28;20984;-79
2023/05/17 02:36:53;;;;;;;0.70;0.40;;;6.90;99.90;;;;;;5075172;28;20426;-79
2023/05/17 02:39:20;;;;;;;0.30;0.30;;;6.90;99.90;;;;;;5075100;28;20456;-79
2023/05/17 02:41:47;;;;;;;0.73;0.30;;;6.90;99.90;;;;;;5075049;28;20442;-79
2023/05/17 02:44:13;;;;;;;0.40;0.30;;;6.90;99.90;;;;;;5074927;28;20472;-79
2023/05/17 02:46:40;;;;;;;0.50;0.50;;;6.70;99.90;;;;;;5074944;28;20563;-79
2023/05/17 02:49:07;;;;;;;0.50;0.40;;;6.80;99.90;;;;;;5074900;28;20823;-79
2023/05/17 02:51:35;;;;;;;1.50;0.40;;;6.70;99.90;;;;;;5074511;28;20859;-79
2023/05/17 02:54:01;;;;;;;0.67;0.67;;;6.70;99.90;;;;;;5074653;28;20837;-79
2023/05/17 02:56:28;;;;;;;0.47;0.47;;;6.70;99.90;;;;;;5074719;28;20449;-79
2023/05/17 02:58:56;;;;;;;0.40;0.30;;;6.70;99.90;;;;;;5074724;28;20453;-79
2023/05/17 03:01:23;;;;;;;1.27;0.43;;;6.60;99.90;;;;;;5074628;28;20477;-79
2023/05/17 03:03:49;;;;;;;0.40;0.40;;;6.70;99.90;;;;;;5074053;28;20996;-79
2023/05/17 03:06:16;;;;;;;0.40;0.40;;;6.70;99.90;;;;;;5074523;28;20446;-79
2023/05/17 03:08:44;;;;;;;5.20;0.63;;;6.60;99.90;;;;;;5074534;28;20454;-79
2023/05/17 03:11:11;;;;;;;0.40;0.37;;;6.60;99.90;;;;;;5074442;28;20445;-79
2023/05/17 03:13:38;;;;;;;0.60;0.40;;;6.60;99.90;;;;;;5074283;28;20508;-79
2023/05/17 03:16:05;;;;;;;0.73;0.40;;;6.60;99.90;;;;;;5074275;28;20457;-79
2023/05/17 03:18:32;;;;;;;28.77;0.80;;;6.60;99.90;;;;;;5074266;28;20457;-79
2023/05/17 03:20:58;;;;;;;0.90;0.50;;;6.60;99.90;;;;;;5074292;28;20491;-79
2023/05/17 03:23:25;;;;;;;0.40;0.40;;;6.50;99.90;;;;;;5074189;28;20469;-79
2023/05/17 03:25:53;;;;;;;4.77;0.90;;;6.50;99.90;;;;;;5074082;28;20865;-79
2023/05/17 03:28:20;;;;;;;1.27;0.60;;;6.40;99.90;;;;;;5074127;28;20449;-79
2023/05/17 03:30:47;;;;;;;0.40;0.40;;;6.40;99.90;;;;;;5074087;28;20941;-79
2023/05/17 03:33:13;;;;;;;0.80;0.67;;;6.40;99.90;;;;;;5073882;28;20493;-79
2023/05/17 03:35:40;;;;;;;0.37;0.37;;;6.40;99.90;;;;;;5073976;28;20454;-79
2023/05/17 03:38:07;;;;;;;0.40;0.40;;;6.40;99.90;;;;;;5074188;28;20445;-79
2023/05/17 03:40:33;;;;;;;0.50;0.47;;;6.40;99.90;;;;;;5073556;28;20460;-79
2023/05/17 03:43:01;;;;;;;0.40;0.40;;;6.40;99.90;;;;;;5073468;28;20457;-79
2023/05/17 03:45:28;;;;;;;0.93;0.40;;;6.40;99.90;;;;;;5073515;28;20963;-79
2023/05/17 03:47:55;;;;;;;0.57;0.50;;;6.40;99.90;;;;;;5073755;28;20506;-79
2023/05/17 03:50:21;;;;;;;0.50;0.50;;;6.40;99.90;;;;;;5073467;28;20945;-79
2023/05/17 03:52:48;;;;;;;0.40;0.40;;;6.40;99.90;;;;;;5073569;28;20820;-79
2023/05/17 03:55:15;;;;;;;0.40;0.40;;;6.40;99.90;;;;;;5073699;28;20507;-79
2023/05/17 03:57:41;;;;;;;0.30;0.30;;;6.40;99.90;;;;;;5073684;28;20448;-79
2023/05/17 04:00:11;;;;;;;1.27;0.60;;;6.30;99.90;;;;;;5073690;28;20498;-79
2023/05/17 04:02:38;;;;;;;0.30;0.30;;;6.30;99.90;;;;;;5073073;28;20474;-79
2023/05/17 04:05:05;;;;;;;5.30;0.63;;;6.30;99.90;;;;;;5073565;28;20449;-79
2023/05/17 04:07:32;;;;;;;0.80;0.50;;;6.40;99.90;;;;;;5073592;28;20456;-79
2023/05/17 04:09:58;;;;;;;0.53;0.53;;;6.30;99.90;;;;;;5073547;28;20446;-79
2023/05/17 04:12:25;;;;;;;0.40;0.30;;;6.40;99.90;;;;;;5073374;28;20441;-79
2023/05/17 04:14:52;;;;;;;0.50;0.50;;;6.40;99.90;;;;;;5073355;28;20532;-79
2023/05/17 04:17:20;;;;;;;0.50;0.50;;;6.40;99.90;;;;;;5073441;28;20449;-79
2023/05/17 04:19:47;;;;;;;1.07;0.57;;;6.40;99.90;;;;;;5073392;28;20526;-79
2023/05/17 04:22:13;;;;;;;0.50;0.50;;;6.40;99.90;;;;;;5073382;28;20448;-79
2023/05/17 04:24:40;;;;;;;0.40;0.30;;;6.50;99.90;;;;;;5073287;28;20469;-79
2023/05/17 04:27:07;;;;;;;1.00;0.50;;;6.50;99.90;;;;;;5073307;28;20448;-79
2023/05/17 04:29:33;;;;;;;0.40;0.30;;;6.50;99.90;;;;;;5072463;28;20956;-79
2023/05/17 04:32:00;;;;;;;0.93;0.93;;;6.60;99.90;;;;;;5073310;28;20441;-79
2023/05/17 04:34:30;;;;;;;0.30;0.30;;;6.60;99.90;;;;;;5073077;28;20511;-79
2023/05/17 04:36:57;;;;;;;0.83;0.60;;;6.70;99.90;;;;;;5073267;28;20516;-79
2023/05/17 04:39:24;;;;;;;1.50;0.80;;;6.70;99.90;;;;;;5073205;28;20461;-79
2023/05/17 04:41:50;;;;;;;0.50;0.43;;;6.70;99.90;;;;;;5073150;28;20548;-79
2023/05/17 04:44:17;;;;;;;0.50;0.50;;;6.80;99.90;;;;;;5073348;28;20848;-79
2023/05/17 04:46:44;;;;;;;10.43;0.50;;;6.90;99.90;;;;;;5073171;28;20516;-79
2023/05/17 04:49:11;;;;;;;0.40;0.40;;;6.90;99.90;;;;;;5073111;28;20570;-79
2023/05/17 04:51:39;;;;;;;0.40;0.40;;;7.00;99.90;;;;;;5073089;28;20449;-79
2023/05/17 04:54:07;;;;;;;0.40;0.40;;;7.10;99.90;;;;;;5072943;28;20481;-79
2023/05/17 04:56:35;;;;;;;0.53;0.53;;;7.10;99.90;;;;;;5073020;28;20450;-79
2023/05/17 04:59:02;;;;;;;0.53;0.53;;;7.20;99.90;;;;;;5072703;28;20925;-79
2023/05/17 05:01:29;;;;;;;0.50;0.40;;;7.30;99.90;;;;;;5073105;28;20492;-79
2023/05/17 05:03:56;;;;;;;0.40;0.30;;;7.40;99.90;;;;;;5072665;28;20956;-79
2023/05/17 05:06:23;;;;;;;0.73;0.73;;;7.40;99.90;;;;;;5072909;28;20452;-79
2023/05/17 05:08:51;;;;;;;0.50;0.50;;;7.50;99.90;;;;;;5072937;28;20450;-79
2023/05/17 05:11:18;;;;;;;0.40;0.40;;;7.60;99.90;;;;;;5072568;28;20934;-79
2023/05/17 05:13:44;;;;;;;0.40;0.30;;;7.70;99.90;;;;;;5072771;28;20481;-79
2023/05/17 05:16:11;;;;;;;0.40;0.40;;;7.80;99.90;;;;;;5072868;28;20453;-79
2023/05/17 05:18:38;;;;;;;0.73;0.50;;;7.80;99.90;;;;;;5072828;28;20953;-79
2023/05/17 05:21:05;;;;;;;0.50;0.50;;;8.00;99.90;;;;;;5072873;28;20449;-79
2023/05/17 05:23:31;;;;;;;4.50;1.37;;;8.00;99.90;;;;;;5072707;28;20494;-79
2023/05/17 05:26:00;;;;;;;4.97;0.50;;;8.10;99.90;;;;;;5072892;28;20495;-79
2023/05/17 05:28:26;;;;;;;0.43;0.43;;;8.20;99.90;;;;;;5072733;28;20483;-79
2023/05/17 05:30:58;;;;;;;0.50;0.47;;;8.30;99.90;;;;;;5072670;28;20446;-79
2023/05/17 05:33:24;;;;;;;1.33;0.63;;;8.30;99.90;;;;;;5072574;28;20524;-79
2023/05/17 05:35:51;;;;;;;0.73;0.73;;;8.40;99.90;;;;;;5072347;28;20941;-80
2023/05/17 05:38:18;;;;;;;0.60;0.60;;;8.50;99.90;;;;;;5072315;28;20824;-79
2023/05/17 05:40:46;;;;;;;5.70;0.50;;;8.70;99.90;;;;;;5073939;28;20450;-79
2023/05/17 05:43:15;;;;;;;1.33;0.90;;;8.80;99.90;;;;;;5076080;28;20501;-79
2023/05/17 05:45:44;;;;;;;0.50;0.40;;;8.90;99.90;;;;;;5076124;28;20450;-79
2023/05/17 05:48:11;;;;;;;1.07;0.70;;;9.10;99.90;;;;;;5075763;28;20978;-79
2023/05/17 05:50:38;;;;;;;0.60;0.60;;;9.20;99.90;;;;;;5076076;28;20461;-79
2023/05/17 05:53:05;;;;;;;2.20;0.80;;;9.30;99.90;;;;;;5075878;28;20828;-79
2023/05/17 05:55:31;;;;;;;0.90;0.57;;;9.40;99.90;;;;;;5075967;28;20491;-79
2023/05/17 05:57:58;;;;;;;0.40;0.40;;;9.60;99.90;;;;;;5075933;28;20479;-80
2023/05/17 06:00:26;;;;;;;1.07;0.47;;;9.80;99.90;;;;;;5075895;28;20454;-80
2023/05/17 06:02:54;;;;;;;0.53;0.50;;;9.90;99.90;;;;;;5075336;28;20485;-79
2023/05/17 06:05:21;;;;;;;0.40;0.40;;;10.10;99.90;;;;;;5075805;28;20456;-79
2023/05/17 06:07:47;;;;;;;0.80;0.73;;;10.20;99.90;;;;;;5075750;28;20446;-79
2023/05/17 06:10:14;;;;;;;1.40;0.53;;;10.30;99.90;;;;;;5075363;28;20483;-79
2023/05/17 06:12:41;;;;;;;0.40;0.30;;;10.50;99.90;;;;;;5075861;28;20450;-80
2023/05/17 06:15:08;;;;;;;0.50;0.50;;;10.80;99.90;;;;;;5076085;28;20488;-79
2023/05/17 06:17:36;;;;;;;1.00;0.80;;;11.10;99.90;;;;;;5075580;28;20452;-79
2023/05/17 06:20:04;;;;;;;0.80;0.50;;;11.40;99.90;;;;;;5075465;28;20870;-80
2023/05/17 06:22:30;;;;;;;3.60;0.60;;;11.50;99.90;;;;;;5075475;28;20852;-79
2023/05/17 06:24:57;;;;;;;0.40;0.40;;;11.70;99.90;;;;;;5075575;28;20422;-79
2023/05/17 06:27:24;;;;;;;1.53;0.67;;;11.90;99.90;;;;;;5075495;28;20441;-79
2023/05/17 06:29:50;;;;;;;0.83;0.50;;;12.20;99.90;;;;;;5075421;28;20453;-79
2023/05/17 06:32:17;;;;;;;0.70;0.60;;;12.60;99.90;;;;;;5075299;28;20541;-80
2023/05/17 06:34:45;;;;;;;1.00;0.70;;;12.80;99.90;;;;;;5075137;28;20488;-79
2023/05/17 06:37:12;;;;;;;2.10;0.67;;;13.10;99.90;;;;;;5075270;28;20458;-79
2023/05/17 06:39:38;;;;;;;1.13;0.70;;;13.30;99.90;;;;;;5075147;28;20454;-80
2023/05/17 06:42:05;;;;;;;1.50;0.60;;;13.30;99.90;;;;;;5075050;28;20458;-79
2023/05/17 06:44:32;;;;;;;1.03;0.67;;;13.30;99.90;;;;;;5075021;28;20461;-80
2023/05/17 06:46:59;;;;;;;0.80;0.57;;;13.10;99.90;;;;;;5074926;28;20457;-80
2023/05/17 06:49:26;;;;;;;4.90;0.77;;;12.90;99.90;;;;;;5074915;28;20479;-79
2023/05/17 06:51:56;;;;;;;1.30;1.00;;;12.70;99.90;;;;;;5074438;28;20464;-80
2023/05/17 06:54:22;;;;;;;0.83;0.70;;;12.60;99.90;;;;;;5074351;28;20481;-80
2023/05/17 06:56:49;;;;;;;1.63;1.10;;;12.50;99.90;;;;;;5074546;28;20871;-80
2023/05/17 06:59:16;;;;;;;1.40;0.90;;;12.60;99.90;;;;;;5074956;28;20851;-80
2023/05/17 07:01:43;;;;;;;0.63;0.63;;;12.60;99.90;;;;;;5074642;28;20484;-80
2023/05/17 07:04:10;;;;;;;4.43;0.73;;;12.70;99.90;;;;;;5074168;28;20485;-80
2023/05/17 07:06:36;;;;;;;1.03;0.50;;;12.80;99.90;;;;;;5074257;28;20449;-80
2023/05/17 07:09:05;;;;;;;0.50;0.50;;;13.00;99.90;;;;;;5074526;28;20445;-80
2023/05/17 07:11:31;;;;;;;1.30;0.67;;;13.30;99.90;;;;;;5074481;28;20449;-80
2023/05/17 07:13:58;;;;;;;0.83;0.83;;;13.50;99.90;;;;;;5074316;28;20488;-79
2023/05/17 07:16:25;;;;;;;0.97;0.50;;;13.80;99.90;;;;;;5074375;28;20465;-80
2023/05/17 07:18:51;;;;;;;0.60;0.60;;;14.20;99.90;;;;;;5074337;28;20449;-80
2023/05/17 07:21:18;;;;;;;1.37;0.80;;;14.80;99.90;;;;;;5074275;28;20453;-80
2023/05/17 07:23:45;;;;;;;3.17;0.80;;;15.40;99.90;;;;;;5074142;28;20470;-80
2023/05/17 07:26:13;;;;;;;0.90;0.87;;;15.70;99.90;;;;;;5073949;28;20810;-80
2023/05/17 07:28:39;;;;;;;0.73;0.50;;;15.50;99.90;;;;;;5074287;28;20456;-80
2023/05/17 07:31:06;;;;;;;0.80;0.60;;;15.50;99.90;;;;;;5074217;28;20483;-80
2023/05/17 07:33:33;;;;;;;2.73;0.80;;;15.40;99.90;;;;;;5073904;28;20569;-81
2023/05/17 07:35:59;;;;;;;1.23;0.50;;;15.80;99.90;;;;;;5073940;28;20807;-79
2023/05/17 07:38:26;;;;;;;1.00;0.77;;;16.50;99.90;;;;;;5074106;28;20454;-80
2023/05/17 07:40:53;;;;;;;0.90;0.70;;;16.90;99.90;;;;;;5073953;28;20449;-81
2023/05/17 07:43:21;;;;;;;1.13;1.00;;;17.20;99.90;;;;;;5073889;28;20805;-80
2023/05/17 07:45:48;;;;;;;1.87;0.80;;;17.20;99.90;;;;;;5073864;28;20454;-80
2023/05/17 07:48:14;;;;;;;1.10;1.00;;;17.30;99.90;;;;;;5073561;28;20519;-80
2023/05/17 07:50:42;;;;;;;1.40;0.90;;;16.90;99.90;;;;;;5073797;28;20441;-81
2023/05/17 07:53:09;;;;;;;1.53;0.90;;;16.90;99.90;;;;;;5073378;28;20556;-80
2023/05/17 07:55:36;;;;;;;2.97;1.00;;;18.00;99.90;;;;;;5073689;28;20496;-80
2023/05/17 07:58:02;;;;;;;1.80;0.70;;;19.60;99.00;;;;;;5073460;28;20452;-81
2023/05/17 08:00:31;;;;;;;0.97;0.80;;;21.20;94.70;;;;;;5073980;28;20499;-81
2023/05/17 08:02:58;;;;;;;1.77;0.80;;;21.90;93.20;;;;;;5072642;28;20516;-81
2023/05/17 08:05:25;;;;;;;7.88;1.20;;;23.40;89.80;;;;;;5073572;28;20203;-81
2023/05/17 08:07:52;;;;;;;2.35;0.98;;;24.90;80.20;;;;;;5073496;28;20198;-81
2023/05/17 08:10:19;;;;;;;1.02;0.82;;;25.10;74.20;;;;;;5073551;28;20209;-81
2023/05/17 08:12:46;;;;;;;2.83;1.15;;;24.50;71.50;;;;;;5073121;28;20621;-81
2023/05/17 08:15:12;;;;;;;1.23;1.13;;;23.20;69.60;;;;;;5073427;28;20276;-80
2023/05/17 08:17:40;;;;;;;1.43;1.13;;;21.80;74.40;;;;;;5073494;28;20206;-81
2023/05/17 08:20:08;;;;;;;0.60;0.60;;;20.40;76.90;;;;;;5073454;28;20206;-80
2023/05/17 08:22:35;;;;;;;2.90;0.90;;;19.50;81.00;;;;;;5073316;28;20453;-81
2023/05/17 08:25:02;;;;;;;1.67;1.00;;;18.80;81.00;;;;;;5073418;28;20523;-81
2023/05/17 08:27:29;;;;;;;2.23;1.50;;;18.10;82.50;;;;;;5073316;28;20452;-81
2023/05/17 08:29:56;;;;;;;2.30;1.10;;;17.30;85.10;;;;;;5073538;28;20449;-81
2023/05/17 08:32:24;;;;;;;1.77;1.00;;;16.50;88.90;;;;;;5073532;28;20968;-80
2023/05/17 08:34:52;;;;;;;1.53;0.90;;;16.10;90.60;;;;;;5073264;28;20564;-81
2023/05/17 08:37:18;;;;;;;4.53;1.30;;;15.80;90.50;;;;;;5073232;28;20450;-79
2023/05/17 08:39:46;;;;;;;1.23;0.77;;;15.50;90.60;;;;;;5073242;28;20445;-80
2023/05/17 08:42:18;;;;;;;2.40;0.80;;;15.30;91.00;;;;;;5073227;28;20443;-80
2023/05/17 08:44:44;;;;;;;2.90;1.40;;;15.00;91.70;;;;;;5073407;28;20465;-80
2023/05/17 08:47:13;;;;;;;1.43;1.00;;;14.80;93.40;;;;;;5073196;28;20453;-79
2023/05/17 08:49:40;;;;;;;0.80;0.70;;;14.80;93.60;;;;;;5073074;28;20450;-80
2023/05/17 08:52:10;;;;;;;3.77;1.20;;;14.70;92.50;;;;;;5073100;28;20508;-79
2023/05/17 08:54:37;;;;;;;2.60;0.90;;;14.60;92.70;;;;;;5072905;28;20493;-79
2023/05/17 08:57:06;;;;;;;1.40;0.80;;;14.60;93.80;;;;;;5072768;28;20441;-80
2023/05/17 08:59:34;;;;;;;1.30;1.20;;;14.80;93.40;;;;;;5073043;28;20820;-79
2023/05/17 09:02:01;;;;;;;2.20;0.70;;;15.00;94.50;;;;;;5072563;28;20488;-79
2023/05/17 09:04:32;;;;;;;1.13;0.80;;;15.30;93.20;;;;;;5073002;28;20465;-79
2023/05/17 09:06:59;;;;;;;2.07;1.63;;;15.30;92.50;;;;;;5072965;28;20446;-79
2023/05/17 09:09:27;;;;;;;0.80;0.70;;;15.40;93.40;;;;;;5072903;28;20457;-79
2023/05/17 09:11:53;;;;;;;2.07;1.10;;;15.30;93.10;;;;;;5072617;28;20938;-79
2023/05/17 09:14:20;;;;;;;2.17;1.13;;;15.20;93.00;;;;;;5073571;28;20576;-79
2023/05/17 09:16:47;;;;;;;7.20;1.07;;;15.10;93.20;;;;;;5076950;28;20449;-80
2023/05/17 09:19:16;;;;;;;5.73;0.97;;;15.10;94.10;;;;;;5076593;28;20523;-79
2023/05/17 09:21:46;;;;;;;3.27;0.87;;;15.10;93.20;;;;;;5076560;28;20448;-79
2023/05/17 09:24:12;;;;;;;1.53;0.97;;;15.10;93.50;;;;;;5076464;28;20496;-79
2023/05/17 09:26:42;;;;;;;3.90;0.90;;;15.00;92.70;;;;;;5076488;28;20453;-80
2023/05/17 09:29:10;;;;;;;0.87;0.70;;;15.00;92.70;;;;;;5076497;28;20522;-79
2023/05/17 09:31:37;;;;;;;2.87;0.80;;;15.00;94.10;;;;;;5076363;28;20449;-79
2023/05/17 09:34:05;;;;;;;2.95;0.70;;;15.20;93.10;;;;;;5076267;28;20526;-79
2023/05/17 09:36:32;;;;;;;1.33;0.60;;;15.40;93.10;;;;;;5076326;28;20452;-79
2023/05/17 09:39:03;;;;;;;1.30;1.17;;;15.40;91.80;;;;;;5075979;28;20515;-79
2023/05/17 09:41:31;;;;;;;2.20;1.10;;;15.30;92.90;;;;;;5075939;28;20931;-79
2023/05/17 09:44:03;;;;;;;0.80;0.80;;;15.30;93.00;;;;;;5076061;28;20552;-79
2023/05/17 09:46:33;;;;;;;1.00;0.80;;;15.50;93.80;;;;;;5076114;28;20446;-78
2023/05/17 09:49:01;;;;;;;1.50;0.80;;;15.50;92.30;;;;;;5076132;28;20845;-79
2023/05/17 09:51:35;;;;;;;0.90;0.70;;;15.50;92.70;;;;;;5076058;28;20539;-79
2023/05/17 09:54:02;;;;;;;1.10;1.00;;;15.30;92.60;;;;;;5075996;28;20465;-80
2023/05/17 09:56:29;;;;;;;1.53;0.80;;;15.10;92.30;;;;;;5075854;28;20488;-79
2023/05/17 09:58:56;;;;;;;2.93;1.10;;;15.00;92.20;;;;;;5075598;28;20820;-79
2023/05/17 10:01:26;;;;;;;1.63;0.83;;;15.20;93.60;;;;;;5075538;28;20511;-79
2023/05/17 10:03:54;;;;;;;0.87;0.83;;;15.40;92.40;;;;;;5075577;28;20481;-79
2023/05/17 10:06:22;;;;;;;2.60;0.80;;;15.60;93.20;;;;;;5075365;28;20818;-79
2023/05/17 10:08:52;;;;;;;1.33;0.80;;;15.60;89.80;;;;;;5075709;28;20449;-80
2023/05/17 10:11:24;;;;;;;7.37;1.20;;;15.60;90.70;;;;;;5076403;28;20859;-80
2023/05/17 10:13:55;;;;;;;2.80;1.10;;;15.50;90.20;;;;;;5075567;28;20466;-80
2023/05/17 10:16:24;;;;;;;1.20;0.80;;;15.30;90.00;;;;;;5075801;28;20465;-80
2023/05/17 10:18:51;;;;;;;1.80;0.87;;;15.20;90.80;;;;;;5075482;28;20453;-80
2023/05/17 10:21:43;;;;;;;4.90;0.87;;;15.10;90.10;;;;;;5075457;28;20863;-80
2023/05/17 10:24:16;;;;;;;0.93;0.73;;;14.90;90.80;;;;;;5066686;28;20466;-80
2023/05/17 10:26:43;;;;;;;1.87;1.20;;;14.70;90.10;;;;;;5074259;28;20452;-80
2023/05/17 10:29:19;;;;;;;2.70;0.70;;;14.70;90.90;;;;;;5074956;28;20526;-80
2023/05/17 10:31:58;;;;;;;1.23;1.13;;;14.80;92.10;;;;;;5074817;28;20539;-80
2023/05/17 10:34:29;;;;;;;1.90;1.07;;;14.80;92.40;;;;;;5075073;28;20477;-80
2023/05/17 10:37:12;;;;;;;0.80;0.80;;;14.70;92.10;;;;;;5075689;28;20492;-80
2023/05/17 10:39:39;;;;;;;1.17;1.10;;;14.70;90.90;;;;;;5075118;28;20479;-80
2023/05/17 10:42:08;;;;;;;1.23;0.87;;;14.70;91.20;;;;;;5075361;28;20430;-80
2023/05/17 10:44:36;;;;;;;1.30;0.90;;;14.60;90.90;;;;;;5074986;28;20469;-80
2023/05/17 10:47:05;;;;;;;1.43;0.80;;;14.70;91.20;;;;;;5074655;28;20963;-79
2023/05/17 10:49:33;;;;;;;3.53;1.10;;;14.90;91.90;;;;;;5074889;28;20445;-80
2023/05/17 10:52:11;;;;;;;2.93;0.90;;;14.90;88.40;;;;;;5074859;28;20544;-80
2023/05/17 10:54:41;;;;;;;2.30;1.00;;;14.80;89.40;;;;;;5074423;28;20988;-80
2023/05/17 10:57:10;;;;;;;3.13;0.80;;;14.80;89.70;;;;;;5074658;28;20483;-79
2023/05/17 10:59:57;;;;;;;4.40;1.07;;;14.60;90.10;;;;;;5074632;28;20453;-80
2023/05/17 11:02:26;;;;;;;1.30;0.83;;;14.60;90.10;;;;;;5074399;28;20504;-80
2023/05/17 11:04:54;;;;;;;1.40;1.00;;;14.70;89.70;;;;;;5074544;28;20526;-81
2023/05/17 11:07:33;;;;;;;2.03;0.67;;;14.50;90.00;;;;;;5074222;28;21022;-79
2023/05/17 11:10:10;;;;;;;1.53;0.83;;;14.40;90.50;;;;;;5075061;28;20468;-80
2023/05/17 11:12:39;;;;;;;1.97;0.70;;;14.50;90.50;;;;;;5074511;28;20433;-79
2023/05/17 11:15:07;;;;;;;0.80;0.53;;;14.50;91.30;;;;;;5074460;28;20485;-80
2023/05/17 11:17:49;;;;;;;0.97;0.80;;;14.70;89.70;;;;;;5074343;28;20807;-80
2023/05/17 11:20:35;;;;;;;2.77;0.70;;;14.70;87.90;;;;;;5074350;28;20442;-80
2023/05/17 11:23:04;;;;;;;1.37;0.67;;;14.60;86.40;;;;;;5074205;28;20465;-80
2023/05/17 11:25:31;;;;;;;0.93;0.80;;;14.60;88.20;;;;;;5074190;28;20438;-80
2023/05/17 11:27:59;;;;;;;0.90;0.70;;;14.60;89.70;;;;;;5073913;28;20450;-79
2023/05/17 11:30:27;;;;;;;0.93;0.87;;;14.70;90.50;;;;;;5074092;28;20442;-79
2023/05/17 11:32:59;;;;;;;2.23;1.00;;;14.70;90.70;;;;;;5073926;28;21039;-79
2023/05/17 11:35:27;;;;;;;3.70;0.70;;;14.70;91.00;;;;;;5073981;28;20493;-78
2023/05/17 11:38:12;;;;;;;1.00;0.50;;;14.70;91.50;;;;;;5073626;28;20816;-78
2023/05/17 11:40:40;;;;;;;3.60;0.70;;;14.70;91.90;;;;;;5073679;28;20897;-79
2023/05/17 11:43:11;;;;;;;0.83;0.60;;;14.70;91.40;;;;;;5073740;28;20465;-78
2023/05/17 11:45:47;;;;;;;0.97;0.80;;;14.80;91.20;;;;;;5073467;28;20937;-78
2023/05/17 11:48:17;;;;;;;2.40;1.10;;;14.90;90.50;;;;;;5073697;28;20533;-79
2023/05/17 11:50:45;;;;;;;3.23;0.70;;;14.90;90.50;;;;;;5073774;28;20445;-78
2023/05/17 11:53:13;;;;;;;1.00;0.77;;;14.90;91.80;;;;;;5073623;28;20473;-78
2023/05/17 11:55:41;;;;;;;2.87;1.27;;;14.90;92.90;;;;;;5073594;28;20503;-78
2023/05/17 11:58:09;;;;;;;2.20;0.80;;;14.90;93.10;;;;;;5073315;28;20937;-78
2023/05/17 12:00:37;;;;;;;2.90;0.80;;;14.90;92.50;;;;;;5073673;28;20429;-78
2023/05/17 12:03:27;;;;;;;1.90;0.87;;;14.70;92.60;;;;;;5073618;28;20493;-78
2023/05/17 12:06:02;;;;;;;1.13;0.70;;;14.60;93.20;;;;;;5073553;28;20458;-78
2023/05/17 12:08:31;;;;;;;2.90;1.73;;;14.50;92.40;;;;;;5073554;28;20437;-78
2023/05/17 12:10:58;;;;;;;1.03;0.93;;;14.40;92.70;;;;;;5073473;28;20503;-78
2023/05/17 12:13:28;;;;;;;1.33;1.03;;;14.40;92.90;;;;;;5073360;28;20476;-78
2023/05/17 12:15:57;;;;;;;1.20;0.73;;;14.40;93.60;;;;;;5073071;28;21003;-78
2023/05/17 12:18:37;;;;;;;2.23;1.07;;;14.40;93.20;;;;;;5073378;28;20457;-78
2023/05/17 12:21:05;;;;;;;3.27;0.83;;;14.30;92.90;;;;;;5073421;28;20429;-77
2023/05/17 12:23:33;;;;;;;1.97;1.00;;;14.30;95.10;;;;;;5073291;28;20535;-78
2023/05/17 12:26:07;;;;;;;1.10;1.00;;;14.10;94.40;;;;;;5073580;28;20464;-78
2023/05/17 12:28:35;;;;;;;3.50;1.00;;;14.20;94.30;;;;;;5073301;28;20460;-78
2023/05/17 12:31:02;;;;;;;1.17;0.70;;;14.10;94.00;;;;;;5073287;28;20528;-78
2023/05/17 12:33:33;;;;;;;0.80;0.63;;;14.00;93.10;;;;;;5073356;28;20473;-78
2023/05/17 12:36:02;;;;;;;5.23;1.07;;;13.90;93.40;;;;;;5073202;28;20473;-78
2023/05/17 12:38:32;;;;;;;2.60;1.13;;;13.90;93.10;;;;;;5073163;28;20481;-78
2023/05/17 12:41:00;;;;;;;0.90;0.80;;;13.90;94.20;;;;;;5073124;28;20568;-78
2023/05/17 12:43:27;;;;;;;1.30;1.00;;;14.00;94.40;;;;;;5072787;28;21016;-78
2023/05/17 12:45:54;;;;;;;3.33;0.70;;;14.10;93.30;;;;;;5073166;28;20473;-78
2023/05/17 12:48:25;;;;;;;4.23;1.47;;;14.10;93.10;;;;;;5073318;28;20802;-78
2023/05/17 12:50:54;;;;;;;5.30;1.17;;;14.10;92.90;;;;;;5076639;28;20429;-79
2023/05/17 12:53:21;;;;;;;1.47;1.17;;;14.30;93.00;;;;;;5077046;28;20469;-77
2023/05/17 12:55:48;;;;;;;2.10;1.20;;;14.40;92.80;;;;;;5077002;28;20473;-78